Time;durP1;ratioP1;P1;durP2;ratioP2;P2;SDS_P1;SDS_P2;PMS_P1;PMS_P2;Temp;Humidity;BMP_temperature;BMP_pressure;BME280_temperature;BME280_humidity;BME280_pressure;Samples;Min_cycle;Max_cycle;Signal;HPM_P1;HPM_P2
2021/08/25 00:00:15;;;;;;;3.72;2.65;;;;;;;;;;5046094;28;20264;-84
2021/08/25 00:02:41;;;;;;;4.05;3.17;;;;;;;;;;5050927;28;20184;-82
2021/08/25 00:05:08;;;;;;;4.65;3.17;;;;;;;;;;5062944;28;20763;-83
2021/08/25 00:07:34;;;;;;;5.32;3.13;;;;;;;;;;5045448;28;20239;-83
2021/08/25 00:10:00;;;;;;;4.80;3.08;;;;;;;;;;5044973;28;20197;-83
2021/08/25 00:12:26;;;;;;;3.15;2.67;;;;;;;;;;5046664;28;20186;-83
2021/08/25 00:14:52;;;;;;;5.63;3.00;;;;;;;;;;5045850;28;20261;-83
2021/08/25 00:17:19;;;;;;;3.83;2.60;;;;;;;;;;5050323;28;20257;-83
2021/08/25 00:19:46;;;;;;;4.80;3.03;;;;;;;;;;5049405;28;20476;-83
2021/08/25 00:22:13;;;;;;;5.40;3.40;;;;;;;;;;5053436;28;20192;-83
2021/08/25 00:24:39;;;;;;;3.10;2.72;;;;;;;;;;5060960;28;20201;-83
2021/08/25 00:27:05;;;;;;;3.90;3.00;;;;;;;;;;5044615;28;20186;-83
2021/08/25 00:29:31;;;;;;;4.90;3.03;;;;;;;;;;5049797;28;20227;-83
2021/08/25 00:31:57;;;;;;;5.10;3.30;;;;;;;;;;5054647;28;20185;-83
2021/08/25 00:34:23;;;;;;;5.10;2.90;;;;;;;;;;5054528;28;20194;-83
2021/08/25 00:36:49;;;;;;;3.60;2.95;;;;;;;;;;5044362;28;20516;-83
2021/08/25 00:39:15;;;;;;;3.93;2.70;;;;;;;;;;5060819;28;20177;-83
2021/08/25 00:41:41;;;;;;;2.38;2.17;;;;;;;;;;5048921;28;20456;-82
2021/08/25 00:44:07;;;;;;;4.85;2.78;;;;;;;;;;5047566;28;20668;-83
2021/08/25 00:46:33;;;;;;;6.78;3.00;;;;;;;;;;5048812;28;20178;-83
2021/08/25 00:49:00;;;;;;;3.55;2.53;;;;;;;;;;5048849;28;20192;-83
2021/08/25 00:51:26;;;;;;;3.40;3.00;;;;;;;;;;5046470;28;20173;-81
2021/08/25 00:53:52;;;;;;;3.17;2.88;;;;;;;;;;5045829;28;20245;-83
2021/08/25 00:56:19;;;;;;;3.47;3.17;;;;;;;;;;5051061;28;20174;-83
2021/08/25 00:58:45;;;;;;;5.15;3.38;;;;;;;;;;5047861;28;20195;-83
2021/08/25 01:01:21;;;;;;;3.05;2.75;;;;;;;;;;5046994;28;20190;-82
2021/08/25 01:03:50;;;;;;;3.70;3.13;;;;;;;;;;5047160;28;20501;-83
2021/08/25 01:06:21;;;;;;;3.50;3.17;;;;;;;;;;5043188;28;20201;-83
2021/08/25 01:08:48;;;;;;;5.05;3.20;;;;;;;;;;5046023;28;20200;-83
2021/08/25 01:11:14;;;;;;;4.75;3.15;;;;;;;;;;5048490;28;20249;-83
2021/08/25 01:13:40;;;;;;;3.15;2.83;;;;;;;;;;5046226;28;20197;-83
2021/08/25 01:16:07;;;;;;;5.30;2.90;;;;;;;;;;5046555;28;20180;-82
2021/08/25 01:18:33;;;;;;;5.47;3.13;;;;;;;;;;5046984;28;20224;-83
2021/08/25 01:21:04;;;;;;;3.35;2.72;;;;;;;;;;5044387;28;20196;-83
2021/08/25 01:23:30;;;;;;;3.38;2.40;;;;;;;;;;5058883;28;20173;-83
2021/08/25 01:25:57;;;;;;;3.40;3.10;;;;;;;;;;5054586;28;20826;-83
2021/08/25 01:28:25;;;;;;;3.92;2.70;;;;;;;;;;5053804;28;20178;-83
2021/08/25 01:30:52;;;;;;;4.20;2.88;;;;;;;;;;5048130;28;20192;-83
2021/08/25 01:33:21;;;;;;;3.22;2.92;;;;;;;;;;5043388;28;20185;-83
2021/08/25 01:35:47;;;;;;;6.05;3.53;;;;;;;;;;5047676;28;20737;-83
2021/08/25 01:38:32;;;;;;;5.90;3.00;;;;;;;;;;5049311;28;20182;-83
2021/08/25 01:40:57;;;;;;;4.47;3.53;;;;;;;;;;5047650;28;20197;-83
2021/08/25 01:43:23;;;;;;;4.87;3.40;;;;;;;;;;5047177;28;20245;-83
2021/08/25 01:45:49;;;;;;;3.47;3.17;;;;;;;;;;5046869;28;20462;-83
2021/08/25 01:48:15;;;;;;;3.57;2.90;;;;;;;;;;5043796;28;20184;-83
2021/08/25 01:50:42;;;;;;;3.87;3.40;;;;;;;;;;5047640;28;20417;-83
2021/08/25 01:53:08;;;;;;;4.72;3.00;;;;;;;;;;5047020;28;20420;-83
2021/08/25 01:55:34;;;;;;;3.92;2.92;;;;;;;;;;5054570;28;20181;-82
2021/08/25 01:58:00;;;;;;;5.00;3.63;;;;;;;;;;5056547;28;20215;-83
2021/08/25 02:00:26;;;;;;;4.18;2.90;;;;;;;;;;5042345;28;20213;-83
2021/08/25 02:02:52;;;;;;;5.43;3.60;;;;;;;;;;5060128;28;20442;-83
2021/08/25 02:05:18;;;;;;;2.73;2.43;;;;;;;;;;5048027;28;20456;-83
2021/08/25 02:07:44;;;;;;;4.47;2.88;;;;;;;;;;5047919;28;20424;-83
2021/08/25 02:10:10;;;;;;;4.50;3.57;;;;;;;;;;5047200;28;20182;-83
2021/08/25 02:12:36;;;;;;;4.60;3.15;;;;;;;;;;5046676;28;20435;-83
2021/08/25 02:15:02;;;;;;;3.97;2.97;;;;;;;;;;5040843;28;20317;-83
2021/08/25 02:17:28;;;;;;;5.43;2.90;;;;;;;;;;5047776;28;20504;-83
2021/08/25 02:19:54;;;;;;;7.73;3.37;;;;;;;;;;5047604;28;20478;-83
2021/08/25 02:22:20;;;;;;;4.72;3.20;;;;;;;;;;5047475;28;20530;-82
2021/08/25 02:24:46;;;;;;;3.47;3.17;;;;;;;;;;5042523;28;20204;-82
2021/08/25 02:27:12;;;;;;;4.57;3.13;;;;;;;;;;5055396;28;20191;-83
2021/08/25 02:29:38;;;;;;;5.90;3.00;;;;;;;;;;5049176;28;20178;-83
2021/08/25 02:32:04;;;;;;;4.33;3.03;;;;;;;;;;5047717;28;20467;-83
2021/08/25 02:34:30;;;;;;;4.50;3.00;;;;;;;;;;5047631;28;20448;-83
2021/08/25 02:36:56;;;;;;;4.80;2.97;;;;;;;;;;5046808;28;20181;-83
2021/08/25 02:39:22;;;;;;;3.97;3.57;;;;;;;;;;5042465;28;20792;-83
2021/08/25 02:41:48;;;;;;;3.83;3.20;;;;;;;;;;5061989;28;20435;-83
2021/08/25 02:44:14;;;;;;;4.22;3.10;;;;;;;;;;5047043;28;20501;-82
2021/08/25 02:46:40;;;;;;;5.50;3.40;;;;;;;;;;5054514;28;20215;-83
2021/08/25 02:49:06;;;;;;;3.50;2.30;;;;;;;;;;5059156;28;20424;-83
2021/08/25 02:51:32;;;;;;;6.05;2.90;;;;;;;;;;5054916;28;20187;-83
2021/08/25 02:53:58;;;;;;;4.43;3.28;;;;;;;;;;5050253;28;20234;-83
2021/08/25 02:56:24;;;;;;;5.63;3.33;;;;;;;;;;5047201;28;20192;-83
2021/08/25 02:58:50;;;;;;;4.50;2.90;;;;;;;;;;5046958;28;20474;-83
2021/08/25 03:01:16;;;;;;;3.87;2.73;;;;;;;;;;5045297;28;20526;-83
2021/08/25 03:03:42;;;;;;;3.08;2.67;;;;;;;;;;5046259;28;20437;-83
2021/08/25 03:06:08;;;;;;;3.57;2.80;;;;;;;;;;5041368;28;20190;-83
2021/08/25 03:08:37;;;;;;;5.43;3.10;;;;;;;;;;5046961;28;20428;-83
2021/08/25 03:11:03;;;;;;;5.38;3.90;;;;;;;;;;5045765;28;20176;-83
2021/08/25 03:13:29;;;;;;;3.35;2.97;;;;;;;;;;5045791;28;20212;-82
2021/08/25 03:15:55;;;;;;;4.18;3.50;;;;;;;;;;5045128;28;20247;-82
2021/08/25 03:18:21;;;;;;;4.37;3.50;;;;;;;;;;5043785;28;20246;-83
2021/08/25 03:20:47;;;;;;;3.80;2.97;;;;;;;;;;5044138;28;20498;-83
2021/08/25 03:23:13;;;;;;;4.40;2.83;;;;;;;;;;5058245;28;20475;-83
2021/08/25 03:25:39;;;;;;;4.40;2.67;;;;;;;;;;5049558;28;20197;-83
2021/08/25 03:28:05;;;;;;;3.77;3.10;;;;;;;;;;5044826;28;20189;-83
2021/08/25 03:30:31;;;;;;;3.90;3.28;;;;;;;;;;5043877;28;20436;-83
2021/08/25 03:32:57;;;;;;;3.27;2.87;;;;;;;;;;5043767;28;20644;-83
2021/08/25 03:35:23;;;;;;;4.05;3.10;;;;;;;;;;5056605;28;20788;-83
2021/08/25 03:37:49;;;;;;;4.15;3.05;;;;;;;;;;5052141;28;20190;-83
2021/08/25 03:40:15;;;;;;;5.17;2.60;;;;;;;;;;5052829;28;20185;-82
2021/08/25 03:42:41;;;;;;;4.00;2.90;;;;;;;;;;5045426;28;20432;-82
2021/08/25 03:45:07;;;;;;;3.80;2.80;;;;;;;;;;5055398;28;20460;-83
2021/08/25 03:47:33;;;;;;;3.58;3.00;;;;;;;;;;5048477;28;20433;-82
2021/08/25 03:50:00;;;;;;;4.72;2.90;;;;;;;;;;5045882;28;20192;-81
2021/08/25 03:52:26;;;;;;;5.57;3.20;;;;;;;;;;5043631;28;20181;-82
2021/08/25 03:54:52;;;;;;;3.15;2.83;;;;;;;;;;5045459;28;20190;-83
2021/08/25 03:57:18;;;;;;;4.47;3.25;;;;;;;;;;5039320;28;20215;-83
2021/08/25 03:59:44;;;;;;;10.23;2.97;;;;;;;;;;5046048;28;20175;-83
2021/08/25 04:02:10;;;;;;;6.33;3.33;;;;;;;;;;5046538;28;20422;-83
2021/08/25 04:04:35;;;;;;;3.77;2.87;;;;;;;;;;5042312;28;20497;-82
2021/08/25 04:07:01;;;;;;;5.50;3.47;;;;;;;;;;5045050;28;20437;-82
2021/08/25 04:09:27;;;;;;;4.10;2.85;;;;;;;;;;5041643;28;20433;-82
2021/08/25 04:11:53;;;;;;;3.72;2.95;;;;;;;;;;5058452;28;20185;-82
2021/08/25 04:14:19;;;;;;;3.30;2.80;;;;;;;;;;5057939;28;20275;-83
2021/08/25 04:16:45;;;;;;;5.30;2.70;;;;;;;;;;5040332;28;20442;-82
2021/08/25 04:19:11;;;;;;;4.50;3.23;;;;;;;;;;5044165;28;20481;-83
2021/08/25 04:21:37;;;;;;;6.22;3.35;;;;;;;;;;5044352;28;20448;-83
2021/08/25 04:24:03;;;;;;;3.60;2.97;;;;;;;;;;5039507;28;20202;-82
2021/08/25 04:26:29;;;;;;;6.10;2.90;;;;;;;;;;5047361;28;20180;-83
2021/08/25 04:28:55;;;;;;;5.23;3.60;;;;;;;;;;5045589;28;20230;-83
2021/08/25 04:31:22;;;;;;;4.37;3.10;;;;;;;;;;5045413;28;20432;-82
2021/08/25 04:33:48;;;;;;;6.03;3.35;;;;;;;;;;5045258;28;20495;-82
2021/08/25 04:36:14;;;;;;;4.10;3.20;;;;;;;;;;5039153;28;20174;-82
2021/08/25 04:38:40;;;;;;;5.47;3.92;;;;;;;;;;5061433;28;20203;-82
2021/08/25 04:41:06;;;;;;;4.22;3.28;;;;;;;;;;5047150;28;20187;-83
2021/08/25 04:43:32;;;;;;;4.80;2.90;;;;;;;;;;5048816;28;20198;-82
2021/08/25 04:45:57;;;;;;;6.43;3.67;;;;;;;;;;5048488;28;20212;-83
2021/08/25 04:48:23;;;;;;;8.60;3.60;;;;;;;;;;5046620;28;20476;-82
2021/08/25 04:50:49;;;;;;;7.53;3.57;;;;;;;;;;5045963;28;20418;-83
2021/08/25 04:53:16;;;;;;;5.00;3.30;;;;;;;;;;5050272;28;20427;-82
2021/08/25 04:55:42;;;;;;;7.63;2.97;;;;;;;;;;5047201;28;20180;-83
2021/08/25 04:58:08;;;;;;;4.65;3.67;;;;;;;;;;5048764;28;20711;-82
2021/08/25 05:00:35;;;;;;;4.23;3.40;;;;;;;;;;5048168;28;20187;-82
2021/08/25 05:03:01;;;;;;;4.20;3.13;;;;;;;;;;5045491;28;20446;-83
2021/08/25 05:05:27;;;;;;;5.78;3.42;;;;;;;;;;5048216;28;20575;-82
2021/08/25 05:07:53;;;;;;;7.15;4.00;;;;;;;;;;5048972;28;20177;-82
2021/08/25 05:10:19;;;;;;;5.80;3.07;;;;;;;;;;5049021;28;20185;-82
2021/08/25 05:12:45;;;;;;;5.20;3.70;;;;;;;;;;5048305;28;20440;-82
2021/08/25 05:15:12;;;;;;;4.45;3.33;;;;;;;;;;5041686;28;20184;-82
2021/08/25 05:17:38;;;;;;;5.30;4.18;;;;;;;;;;5061235;28;20180;-83
2021/08/25 05:20:05;;;;;;;5.20;4.28;;;;;;;;;;5059056;28;20276;-82
2021/08/25 05:22:31;;;;;;;4.78;3.55;;;;;;;;;;5052649;28;20183;-83
2021/08/25 05:24:57;;;;;;;5.07;3.78;;;;;;;;;;5047995;28;20199;-82
2021/08/25 05:27:23;;;;;;;6.03;3.80;;;;;;;;;;5045843;28;20206;-82
2021/08/25 05:29:49;;;;;;;6.70;4.20;;;;;;;;;;5046133;28;20186;-82
2021/08/25 05:32:15;;;;;;;5.67;3.87;;;;;;;;;;5062450;28;20175;-83
2021/08/25 05:34:41;;;;;;;5.68;4.13;;;;;;;;;;5048694;28;20432;-82
2021/08/25 05:37:07;;;;;;;4.20;3.80;;;;;;;;;;5046550;28;20188;-83
2021/08/25 05:39:33;;;;;;;5.32;3.85;;;;;;;;;;5045656;28;20428;-82
2021/08/25 05:41:59;;;;;;;5.57;4.57;;;;;;;;;;5044674;28;20180;-82
2021/08/25 05:44:25;;;;;;;4.23;3.50;;;;;;;;;;5049017;28;20458;-82
2021/08/25 05:46:51;;;;;;;6.00;4.00;;;;;;;;;;5046494;28;20442;-83
2021/08/25 05:49:17;;;;;;;7.45;5.03;;;;;;;;;;5047754;28;20460;-83
2021/08/25 05:51:43;;;;;;;8.50;4.70;;;;;;;;;;5059037;28;20205;-82
2021/08/25 05:54:09;;;;;;;4.57;4.10;;;;;;;;;;5043210;28;20199;-82
2021/08/25 05:56:36;;;;;;;4.18;3.55;;;;;;;;;;5047999;28;20170;-83
2021/08/25 05:59:02;;;;;;;6.07;4.75;;;;;;;;;;5047678;28;20555;-82
2021/08/25 06:01:28;;;;;;;6.35;3.92;;;;;;;;;;5049357;28;20194;-83
2021/08/25 06:03:54;;;;;;;6.18;5.00;;;;;;;;;;5057209;28;20191;-82
2021/08/25 06:06:20;;;;;;;4.30;3.90;;;;;;;;;;5044839;28;20195;-82
2021/08/25 06:08:46;;;;;;;6.07;4.97;;;;;;;;;;5046049;28;20204;-83
2021/08/25 06:11:12;;;;;;;4.25;3.83;;;;;;;;;;5046972;28;20418;-83
2021/08/25 06:13:38;;;;;;;6.93;4.33;;;;;;;;;;5047305;28;20180;-83
2021/08/25 06:16:05;;;;;;;7.90;4.60;;;;;;;;;;5044789;28;20452;-82
2021/08/25 06:18:31;;;;;;;6.70;4.80;;;;;;;;;;5044554;28;20235;-83
2021/08/25 06:20:58;;;;;;;5.80;4.32;;;;;;;;;;5045169;28;20275;-83
2021/08/25 06:23:24;;;;;;;5.80;4.25;;;;;;;;;;5048169;28;20537;-82
2021/08/25 06:25:50;;;;;;;9.27;4.57;;;;;;;;;;5046589;28;20233;-83
2021/08/25 06:28:16;;;;;;;5.70;4.40;;;;;;;;;;5047206;28;20444;-83
2021/08/25 06:30:43;;;;;;;6.32;4.60;;;;;;;;;;5045314;28;20439;-83
2021/08/25 06:33:09;;;;;;;5.35;4.55;;;;;;;;;;5041276;28;20177;-83
2021/08/25 06:35:35;;;;;;;9.40;4.80;;;;;;;;;;5047462;28;20208;-83
2021/08/25 06:38:01;;;;;;;6.40;5.30;;;;;;;;;;5046088;28;20615;-83
2021/08/25 06:40:27;;;;;;;5.53;4.10;;;;;;;;;;5048268;28;20181;-83
2021/08/25 06:42:53;;;;;;;5.55;4.90;;;;;;;;;;5053070;28;20440;-82
2021/08/25 06:45:19;;;;;;;6.38;5.28;;;;;;;;;;5054982;28;20298;-82
2021/08/25 06:47:45;;;;;;;6.72;5.05;;;;;;;;;;5045607;28;20177;-82
2021/08/25 06:50:11;;;;;;;8.37;4.80;;;;;;;;;;5046326;28;20173;-83
2021/08/25 06:52:37;;;;;;;8.25;5.22;;;;;;;;;;5049660;28;20442;-83
2021/08/25 06:55:03;;;;;;;4.80;4.40;;;;;;;;;;5055260;28;20323;-83
2021/08/25 06:57:29;;;;;;;5.90;4.53;;;;;;;;;;5043913;28;20445;-83
2021/08/25 06:59:55;;;;;;;5.03;4.32;;;;;;;;;;5060591;28;20180;-83
2021/08/25 07:02:21;;;;;;;5.67;4.50;;;;;;;;;;5060914;28;20188;-83
2021/08/25 07:04:47;;;;;;;4.87;4.40;;;;;;;;;;5047269;28;20460;-83
2021/08/25 07:07:13;;;;;;;7.23;4.37;;;;;;;;;;5050010;28;21001;-83
2021/08/25 07:09:40;;;;;;;5.43;4.43;;;;;;;;;;5058009;28;20676;-83
2021/08/25 07:12:06;;;;;;;7.30;4.25;;;;;;;;;;5041292;28;20202;-82
2021/08/25 07:14:32;;;;;;;8.00;4.32;;;;;;;;;;5046451;28;20178;-83
2021/08/25 07:16:58;;;;;;;6.68;4.20;;;;;;;;;;5044544;28;20193;-82
2021/08/25 07:19:24;;;;;;;4.37;3.97;;;;;;;;;;5046784;28;20229;-83
2021/08/25 07:21:50;;;;;;;4.23;3.57;;;;;;;;;;5044649;28;20622;-83
2021/08/25 07:24:16;;;;;;;5.17;4.50;;;;;;;;;;5040244;28;20473;-83
2021/08/25 07:26:42;;;;;;;6.30;4.30;;;;;;;;;;5047100;28;20514;-82
2021/08/25 07:29:08;;;;;;;5.75;3.45;;;;;;;;;;5041991;28;20475;-83
2021/08/25 07:31:34;;;;;;;5.63;4.15;;;;;;;;;;5046182;28;20426;-83
2021/08/25 07:34:00;;;;;;;10.27;5.07;;;;;;;;;;5044481;28;20711;-83
2021/08/25 07:36:26;;;;;;;5.35;3.88;;;;;;;;;;5042364;28;20170;-83
2021/08/25 07:38:52;;;;;;;5.95;4.55;;;;;;;;;;5044593;28;20185;-83
2021/08/25 07:41:19;;;;;;;5.18;4.10;;;;;;;;;;5054323;28;20228;-82
2021/08/25 07:43:45;;;;;;;4.35;3.63;;;;;;;;;;5047347;28;20185;-83
2021/08/25 07:46:11;;;;;;;5.15;3.65;;;;;;;;;;5044172;28;20202;-82
2021/08/25 07:48:37;;;;;;;6.47;4.47;;;;;;;;;;5045799;28;20189;-82
2021/08/25 07:51:08;;;;;;;6.15;4.32;;;;;;;;;;5040205;28;20206;-83
2021/08/25 07:53:35;;;;;;;6.45;3.85;;;;;;;;;;5047329;28;20170;-83
2021/08/25 07:56:01;;;;;;;5.70;4.15;;;;;;;;;;5044043;28;20212;-82
2021/08/25 07:58:27;;;;;;;4.60;4.00;;;;;;;;;;5045310;28;20186;-83
2021/08/25 08:00:53;;;;;;;5.25;4.40;;;;;;;;;;5044289;28;20551;-83
2021/08/25 08:03:19;;;;;;;4.90;3.63;;;;;;;;;;5040820;28;20186;-82
2021/08/25 08:05:46;;;;;;;5.80;3.83;;;;;;;;;;5044792;28;20228;-83
2021/08/25 08:08:12;;;;;;;6.68;4.65;;;;;;;;;;5046839;28;20412;-82
2021/08/25 08:10:38;;;;;;;6.30;3.60;;;;;;;;;;5047292;28;20177;-83
2021/08/25 08:13:04;;;;;;;5.28;4.00;;;;;;;;;;5051189;28;20439;-83
2021/08/25 08:15:31;;;;;;;4.95;3.95;;;;;;;;;;5056182;28;20288;-82
2021/08/25 08:17:59;;;;;;;6.93;3.53;;;;;;;;;;5047309;28;20304;-82
2021/08/25 08:20:25;;;;;;;4.72;4.10;;;;;;;;;;5050566;28;20181;-83
2021/08/25 08:22:51;;;;;;;5.97;4.30;;;;;;;;;;5049436;28;20261;-83
2021/08/25 08:25:17;;;;;;;5.25;3.83;;;;;;;;;;5050074;28;20868;-83
2021/08/25 08:27:43;;;;;;;13.07;4.10;;;;;;;;;;5048300;28;20186;-84
2021/08/25 08:30:09;;;;;;;4.70;4.30;;;;;;;;;;5060167;28;20494;-82
2021/08/25 08:32:35;;;;;;;4.57;3.40;;;;;;;;;;5051673;28;20403;-83
2021/08/25 08:35:01;;;;;;;5.77;4.20;;;;;;;;;;5049423;28;20183;-83
2021/08/25 08:37:27;;;;;;;4.70;3.53;;;;;;;;;;5048784;28;20411;-83
2021/08/25 08:39:53;;;;;;;8.40;3.90;;;;;;;;;;5059157;28;20411;-84
2021/08/25 08:42:25;;;;;;;4.17;2.83;;;;;;;;;;5045060;28;20953;-83
2021/08/25 08:44:52;;;;;;;7.57;4.20;;;;;;;;;;5046428;28;20537;-83
2021/08/25 08:47:18;;;;;;;6.65;4.57;;;;;;;;;;5057175;28;20266;-81
2021/08/25 08:49:44;;;;;;;4.82;3.55;;;;;;;;;;5058818;28;20186;-81
2021/08/25 08:52:10;;;;;;;11.93;4.45;;;;;;;;;;5055850;28;20179;-84
2021/08/25 08:54:36;;;;;;;4.18;3.47;;;;;;;;;;5061375;28;20177;-83
2021/08/25 08:57:02;;;;;;;6.07;3.50;;;;;;;;;;5043879;28;20222;-81
2021/08/25 08:59:28;;;;;;;5.57;4.35;;;;;;;;;;5049599;28;20422;-82
2021/08/25 09:01:54;;;;;;;5.17;4.50;;;;;;;;;;5058930;28;20222;-83
2021/08/25 09:04:35;;;;;;;6.17;3.67;;;;;;;;;;5054592;28;20497;-83
2021/08/25 09:07:01;;;;;;;7.63;3.20;;;;;;;;;;5046211;28;20530;-83
2021/08/25 09:09:27;;;;;;;3.88;3.50;;;;;;;;;;5058887;28;20185;-82
2021/08/25 09:11:54;;;;;;;4.20;3.60;;;;;;;;;;5045471;28;20172;-82
2021/08/25 09:14:24;;;;;;;4.15;3.67;;;;;;;;;;5048089;28;20666;-81
2021/08/25 09:16:50;;;;;;;4.20;3.80;;;;;;;;;;5048130;28;20196;-82
2021/08/25 09:19:17;;;;;;;3.93;3.33;;;;;;;;;;5048795;28;20723;-82
2021/08/25 09:21:44;;;;;;;4.50;3.85;;;;;;;;;;5048427;28;20431;-81
2021/08/25 09:24:10;;;;;;;3.75;3.30;;;;;;;;;;5041848;28;20189;-82
2021/08/25 09:26:38;;;;;;;5.30;3.63;;;;;;;;;;5055218;28;20173;-81
2021/08/25 09:29:20;;;;;;;4.38;3.33;;;;;;;;;;5047418;28;20430;-83
2021/08/25 09:31:47;;;;;;;4.63;3.30;;;;;;;;;;5048831;28;20721;-83
2021/08/25 09:34:29;;;;;;;5.70;4.50;;;;;;;;;;5047516;28;20623;-82
2021/08/25 09:37:30;;;;;;;4.97;4.25;;;;;;;;;;5057697;28;20460;-82
2021/08/25 09:40:00;;;;;;;4.80;3.80;;;;;;;;;;5009063;28;20193;-83
2021/08/25 09:42:40;;;;;;;3.40;3.07;;;;;;;;;;5008029;28;20415;-82
2021/08/25 09:45:07;;;;;;;3.60;3.30;;;;;;;;;;5005470;28;20446;-83
2021/08/25 09:47:49;;;;;;;4.03;3.67;;;;;;;;;;5011197;28;20424;-83
2021/08/25 09:50:16;;;;;;;3.53;3.23;;;;;;;;;;5035815;28;20440;-82
2021/08/25 09:52:43;;;;;;;4.00;3.33;;;;;;;;;;5013225;28;20408;-82
2021/08/25 09:55:10;;;;;;;3.60;2.93;;;;;;;;;;5013004;28;20432;-83
2021/08/25 09:57:36;;;;;;;3.80;3.20;;;;;;;;;;5020840;28;20500;-80
2021/08/25 10:00:03;;;;;;;6.50;2.90;;;;;;;;;;5004757;28;20437;-82
2021/08/25 10:02:30;;;;;;;3.77;2.77;;;;;;;;;;5027633;28;20418;-83
2021/08/25 10:04:56;;;;;;;3.53;3.00;;;;;;;;;;5010042;28;20488;-81
2021/08/25 10:07:22;;;;;;;5.10;3.30;;;;;;;;;;5009665;28;20419;-82
2021/08/25 10:09:48;;;;;;;6.80;3.17;;;;;;;;;;5023528;28;20440;-82
2021/08/25 10:12:14;;;;;;;3.90;3.23;;;;;;;;;;5004973;28;20533;-84
2021/08/25 10:14:40;;;;;;;4.07;3.10;;;;;;;;;;5045121;28;20387;-83
2021/08/25 10:17:06;;;;;;;3.33;2.73;;;;;;;;;;5047424;28;20434;-83
2021/08/25 10:19:39;;;;;;;6.83;3.60;;;;;;;;;;5046001;28;20467;-83
2021/08/25 10:22:05;;;;;;;5.40;3.10;;;;;;;;;;5047088;28;20457;-81
2021/08/25 10:24:49;;;;;;;4.17;3.43;;;;;;;;;;5044370;28;20469;-82
2021/08/25 10:27:15;;;;;;;3.57;3.00;;;;;;;;;;5056491;28;20437;-81
2021/08/25 10:30:00;;;;;;;2.87;2.67;;;;;;;;;;5046876;28;20429;-80
2021/08/25 10:32:26;;;;;;;3.47;2.43;;;;;;;;;;5048127;28;20391;-82
2021/08/25 10:35:16;;;;;;;5.00;3.30;;;;;;;;;;5047232;28;20440;-82
2021/08/25 10:37:44;;;;;;;2.67;2.47;;;;;;;;;;5046080;28;20418;-83
2021/08/25 10:40:10;;;;;;;3.30;3.00;;;;;;;;;;5046699;28;20420;-82
2021/08/25 10:42:47;;;;;;;4.30;3.13;;;;;;;;;;5046615;28;20439;-81
2021/08/25 10:45:13;;;;;;;6.13;3.63;;;;;;;;;;5040388;28;20466;-81
2021/08/25 10:47:55;;;;;;;3.40;3.10;;;;;;;;;;5060651;28;20405;-82
2021/08/25 10:50:21;;;;;;;4.90;3.23;;;;;;;;;;5057775;28;20516;-83
2021/08/25 10:52:47;;;;;;;7.43;3.30;;;;;;;;;;5049386;28;20431;-83
2021/08/25 10:55:13;;;;;;;6.60;3.50;;;;;;;;;;5053787;28;20463;-83
2021/08/25 10:57:43;;;;;;;3.67;3.07;;;;;;;;;;5045815;28;20498;-82
2021/08/25 11:00:09;;;;;;;3.93;3.43;;;;;;;;;;5040189;28;20477;-81
2021/08/25 11:02:39;;;;;;;4.97;3.53;;;;;;;;;;5047650;28;20421;-81
2021/08/25 11:05:05;;;;;;;7.97;3.30;;;;;;;;;;5047158;28;20439;-82
2021/08/25 11:07:31;;;;;;;3.47;3.00;;;;;;;;;;5046488;28;20458;-82
2021/08/25 11:09:57;;;;;;;3.90;3.43;;;;;;;;;;5055932;28;20439;-83
2021/08/25 11:12:24;;;;;;;5.47;3.37;;;;;;;;;;5043874;28;20415;-83
2021/08/25 11:14:51;;;;;;;4.30;3.90;;;;;;;;;;5043852;28;20420;-83
2021/08/25 11:17:26;;;;;;;4.40;3.73;;;;;;;;;;5047227;28;20756;-82
2021/08/25 11:19:52;;;;;;;4.13;3.40;;;;;;;;;;5045654;28;20439;-83
2021/08/25 11:22:23;;;;;;;3.63;3.33;;;;;;;;;;5050323;28;20581;-82
2021/08/25 11:24:56;;;;;;;4.23;3.57;;;;;;;;;;5056623;28;20609;-83
2021/08/25 11:27:32;;;;;;;4.40;3.33;;;;;;;;;;5042936;28;20479;-83
2021/08/25 11:30:11;;;;;;;3.90;3.40;;;;;;;;;;5044172;28;20413;-84
2021/08/25 11:32:57;;;;;;;3.40;3.10;;;;;;;;;;5038825;28;20420;-82
2021/08/25 11:35:29;;;;;;;3.40;2.80;;;;;;;;;;5044368;28;20400;-83
2021/08/25 11:38:07;;;;;;;3.43;3.13;;;;;;;;;;5044336;28;20453;-81
2021/08/25 11:40:34;;;;;;;4.20;3.80;;;;;;;;;;5045707;28;20837;-82
2021/08/25 11:43:03;;;;;;;4.80;3.70;;;;;;;;;;5045272;28;20440;-82
2021/08/25 11:45:32;;;;;;;5.20;3.40;;;;;;;;;;5044003;28;20442;-82
2021/08/25 11:47:59;;;;;;;3.30;3.00;;;;;;;;;;5043988;28;20391;-81
2021/08/25 11:50:26;;;;;;;4.40;3.23;;;;;;;;;;5045725;28;20380;-82
2021/08/25 11:52:53;;;;;;;3.47;3.17;;;;;;;;;;5045811;28;20440;-82
2021/08/25 11:55:20;;;;;;;4.47;3.30;;;;;;;;;;5045612;28;20494;-81
2021/08/25 11:57:46;;;;;;;4.67;3.50;;;;;;;;;;5044574;28;20447;-82
2021/08/25 12:00:13;;;;;;;4.00;3.60;;;;;;;;;;5055473;28;20426;-84
2021/08/25 12:02:55;;;;;;;3.23;3.03;;;;;;;;;;5058270;28;20463;-81
2021/08/25 12:05:21;;;;;;;3.47;3.17;;;;;;;;;;5045334;28;20459;-82
2021/08/25 12:07:59;;;;;;;3.20;2.90;;;;;;;;;;5045399;28;20429;-82
2021/08/25 12:10:26;;;;;;;3.50;3.20;;;;;;;;;;5046198;28;20520;-82
2021/08/25 12:12:52;;;;;;;4.10;3.63;;;;;;;;;;5043795;28;20465;-81
2021/08/25 12:15:18;;;;;;;4.23;3.80;;;;;;;;;;5041026;28;20484;-84
2021/08/25 12:18:00;;;;;;;4.17;3.07;;;;;;;;;;5058809;28;20402;-81
2021/08/25 12:20:39;;;;;;;3.03;2.73;;;;;;;;;;5044712;28;20953;-83
2021/08/25 12:23:09;;;;;;;4.97;3.20;;;;;;;;;;5057061;28;20438;-82
2021/08/25 12:25:38;;;;;;;3.50;3.20;;;;;;;;;;5049129;28;20483;-83
2021/08/25 12:28:05;;;;;;;3.40;3.10;;;;;;;;;;5043175;28;20811;-81
2021/08/25 12:30:35;;;;;;;4.07;2.80;;;;;;;;;;5043036;28;20426;-83
2021/08/25 12:33:04;;;;;;;4.20;3.30;;;;;;;;;;5057791;28;20561;-82
2021/08/25 12:35:31;;;;;;;2.73;2.50;;;;;;;;;;5046315;28;20428;-83
2021/08/25 12:37:57;;;;;;;3.23;2.93;;;;;;;;;;5049714;28;20431;-83
2021/08/25 12:40:23;;;;;;;3.23;3.00;;;;;;;;;;5051069;28;20462;-84
2021/08/25 12:42:50;;;;;;;3.97;3.20;;;;;;;;;;5044242;28;20439;-83
2021/08/25 12:45:16;;;;;;;2.83;2.63;;;;;;;;;;5055864;28;20468;-85
2021/08/25 12:47:42;;;;;;;3.53;3.23;;;;;;;;;;5044552;28;20424;-83
2021/08/25 12:50:09;;;;;;;3.10;2.80;;;;;;;;;;5045410;28;20433;-82
2021/08/25 12:52:35;;;;;;;3.43;3.17;;;;;;;;;;5045366;28;20424;-83
2021/08/25 12:55:01;;;;;;;3.93;3.47;;;;;;;;;;5042591;28;20443;-83
2021/08/25 12:57:27;;;;;;;3.70;3.40;;;;;;;;;;5055514;28;20441;-84
2021/08/25 12:59:53;;;;;;;4.80;2.93;;;;;;;;;;5042421;28;20429;-83
2021/08/25 13:02:19;;;;;;;4.30;2.90;;;;;;;;;;5047912;28;20450;-83
2021/08/25 13:04:45;;;;;;;4.37;3.43;;;;;;;;;;5048565;28;20485;-82
2021/08/25 13:07:11;;;;;;;4.20;3.90;;;;;;;;;;5048688;28;20436;-83
2021/08/25 13:09:38;;;;;;;3.63;2.77;;;;;;;;;;5047481;28;20466;-83
2021/08/25 13:12:04;;;;;;;3.23;2.93;;;;;;;;;;5044662;28;20622;-84
2021/08/25 13:14:30;;;;;;;3.20;3.00;;;;;;;;;;5059632;28;20431;-84
2021/08/25 13:16:56;;;;;;;3.73;3.23;;;;;;;;;;5048238;28;20440;-84
2021/08/25 13:19:22;;;;;;;3.63;3.40;;;;;;;;;;5047648;28;20930;-83
2021/08/25 13:21:48;;;;;;;4.03;3.70;;;;;;;;;;5049045;28;20432;-83
2021/08/25 13:24:14;;;;;;;3.33;3.13;;;;;;;;;;5043421;28;20469;-85
2021/08/25 13:26:40;;;;;;;3.67;3.37;;;;;;;;;;5050079;28;20492;-84
2021/08/25 13:29:06;;;;;;;3.10;2.90;;;;;;;;;;5048377;28;20481;-85
2021/08/25 13:31:32;;;;;;;3.60;3.30;;;;;;;;;;5047548;28;20429;-83
2021/08/25 13:33:58;;;;;;;3.10;2.90;;;;;;;;;;5048070;28;20436;-83
2021/08/25 13:36:25;;;;;;;3.60;3.30;;;;;;;;;;5046234;28;20440;-82
2021/08/25 13:38:51;;;;;;;3.10;2.90;;;;;;;;;;5045458;28;20999;-84
2021/08/25 13:41:18;;;;;;;3.73;3.43;;;;;;;;;;5062733;28;20415;-83
2021/08/25 13:43:44;;;;;;;3.83;3.53;;;;;;;;;;5050760;28;20444;-84
2021/08/25 13:46:10;;;;;;;3.50;3.20;;;;;;;;;;5046313;28;20773;-84
2021/08/25 13:48:36;;;;;;;3.77;3.47;;;;;;;;;;5047114;28;20879;-84
2021/08/25 13:51:02;;;;;;;3.50;3.30;;;;;;;;;;5042695;28;24115;-84
2021/08/25 13:53:28;;;;;;;3.50;3.20;;;;;;;;;;5063175;28;20419;-84
2021/08/25 13:55:54;;;;;;;3.17;2.97;;;;;;;;;;5048100;28;20429;-85
2021/08/25 13:58:20;;;;;;;3.63;2.50;;;;;;;;;;5047464;28;20449;-84
2021/08/25 14:00:46;;;;;;;2.90;2.70;;;;;;;;;;5041141;28;20472;-84
2021/08/25 14:03:13;;;;;;;3.23;3.03;;;;;;;;;;5057113;28;20448;-83
2021/08/25 14:05:39;;;;;;;3.57;3.27;;;;;;;;;;5049479;28;20524;-85
2021/08/25 14:08:05;;;;;;;4.63;4.23;;;;;;;;;;5048209;28;20954;-82
2021/08/25 14:10:31;;;;;;;3.60;3.30;;;;;;;;;;5044682;28;20479;-83
2021/08/25 14:12:58;;;;;;;3.33;3.03;;;;;;;;;;5046535;28;20875;-82
2021/08/25 14:15:24;;;;;;;3.40;2.97;;;;;;;;;;5041715;28;20506;-83
2021/08/25 14:17:50;;;;;;;3.03;2.73;;;;;;;;;;5045001;28;20453;-83
2021/08/25 14:20:16;;;;;;;3.10;2.90;;;;;;;;;;5048285;28;20433;-83
2021/08/25 14:22:42;;;;;;;4.20;3.40;;;;;;;;;;5046145;28;20943;-83
2021/08/25 14:25:09;;;;;;;3.30;2.90;;;;;;;;;;5047160;28;20488;-83
2021/08/25 14:27:35;;;;;;;3.40;3.10;;;;;;;;;;5042418;28;20466;-82
2021/08/25 14:30:02;;;;;;;3.37;3.07;;;;;;;;;;5056888;28;20707;-84
2021/08/25 14:32:28;;;;;;;5.00;3.53;;;;;;;;;;5048079;28;20922;-83
2021/08/25 14:34:54;;;;;;;3.37;3.07;;;;;;;;;;5046560;28;20432;-83
2021/08/25 14:37:20;;;;;;;4.70;3.00;;;;;;;;;;5047211;28;20872;-82
2021/08/25 14:39:46;;;;;;;2.93;2.63;;;;;;;;;;5046785;28;20440;-83
2021/08/25 14:42:12;;;;;;;6.23;3.37;;;;;;;;;;5040813;28;20630;-83